sensor_id;sensor_type;location;lat;lon;timestamp;P1;durP1;ratioP1;P2;durP2;ratioP2
77076;SDS011;66003;52.286;104.306;2024-03-02T00:00:08;6.35;;;2.47;;
77076;SDS011;66003;52.286;104.306;2024-03-02T00:02:41;15.88;;;2.85;;
77076;SDS011;66003;52.286;104.306;2024-03-02T00:05:08;2.53;;;1.33;;
77076;SDS011;66003;52.286;104.306;2024-03-02T00:07:40;3.38;;;1.75;;
77076;SDS011;66003;52.286;104.306;2024-03-02T00:10:08;4.47;;;2.65;;
77076;SDS011;66003;52.286;104.306;2024-03-02T00:12:36;3.75;;;2.55;;
77076;SDS011;66003;52.286;104.306;2024-03-02T00:15:05;7.10;;;3.58;;
77076;SDS011;66003;52.286;104.306;2024-03-02T00:17:53;1.38;;;0.80;;
77076;SDS011;66003;52.286;104.306;2024-03-02T00:20:21;3.85;;;3.05;;
77076;SDS011;66003;52.286;104.306;2024-03-02T00:22:49;1.00;;;1.00;;
77076;SDS011;66003;52.286;104.306;2024-03-02T00:25:16;5.93;;;3.40;;
77076;SDS011;66003;52.286;104.306;2024-03-02T00:27:47;2.42;;;1.67;;
77076;SDS011;66003;52.286;104.306;2024-03-02T00:30:27;6.45;;;3.08;;
77076;SDS011;66003;52.286;104.306;2024-03-02T00:32:59;6.80;;;3.20;;
77076;SDS011;66003;52.286;104.306;2024-03-02T00:35:25;6.28;;;3.67;;
77076;SDS011;66003;52.286;104.306;2024-03-02T00:37:52;2.88;;;1.85;;
77076;SDS011;66003;52.286;104.306;2024-03-02T00:40:18;5.65;;;4.13;;
77076;SDS011;66003;52.286;104.306;2024-03-02T00:42:44;11.55;;;5.90;;
77076;SDS011;66003;52.286;104.306;2024-03-02T00:45:12;3.25;;;2.92;;
77076;SDS011;66003;52.286;104.306;2024-03-02T00:47:38;14.18;;;8.95;;
77076;SDS011;66003;52.286;104.306;2024-03-02T00:50:05;9.70;;;4.65;;
77076;SDS011;66003;52.286;104.306;2024-03-02T00:52:32;12.85;;;7.20;;
77076;SDS011;66003;52.286;104.306;2024-03-02T00:55:01;18.90;;;6.72;;
77076;SDS011;66003;52.286;104.306;2024-03-02T00:57:29;7.60;;;3.13;;
77076;SDS011;66003;52.286;104.306;2024-03-02T01:00:00;13.27;;;5.63;;
77076;SDS011;66003;52.286;104.306;2024-03-02T01:02:29;11.20;;;5.05;;
77076;SDS011;66003;52.286;104.306;2024-03-02T01:04:55;2.30;;;1.80;;
77076;SDS011;66003;52.286;104.306;2024-03-02T01:07:21;17.52;;;9.65;;
77076;SDS011;66003;52.286;104.306;2024-03-02T01:09:48;18.40;;;8.52;;
77076;SDS011;66003;52.286;104.306;2024-03-02T01:12:14;12.63;;;6.15;;
77076;SDS011;66003;52.286;104.306;2024-03-02T01:14:40;12.20;;;5.03;;
77076;SDS011;66003;52.286;104.306;2024-03-02T01:17:07;8.57;;;4.18;;
77076;SDS011;66003;52.286;104.306;2024-03-02T01:19:37;16.02;;;6.63;;
77076;SDS011;66003;52.286;104.306;2024-03-02T01:22:11;5.78;;;2.22;;
77076;SDS011;66003;52.286;104.306;2024-03-02T01:24:38;10.55;;;4.90;;
77076;SDS011;66003;52.286;104.306;2024-03-02T01:27:04;6.88;;;2.80;;
77076;SDS011;66003;52.286;104.306;2024-03-02T01:29:30;4.90;;;2.78;;
77076;SDS011;66003;52.286;104.306;2024-03-02T01:31:57;19.38;;;7.85;;
77076;SDS011;66003;52.286;104.306;2024-03-02T01:34:23;21.13;;;7.40;;
77076;SDS011;66003;52.286;104.306;2024-03-02T01:36:50;11.65;;;6.20;;
77076;SDS011;66003;52.286;104.306;2024-03-02T01:39:16;11.70;;;4.05;;
77076;SDS011;66003;52.286;104.306;2024-03-02T01:41:42;7.65;;;5.18;;
77076;SDS011;66003;52.286;104.306;2024-03-02T01:44:09;20.00;;;8.35;;
77076;SDS011;66003;52.286;104.306;2024-03-02T01:46:35;13.98;;;7.07;;
77076;SDS011;66003;52.286;104.306;2024-03-02T01:49:01;15.60;;;8.50;;
77076;SDS011;66003;52.286;104.306;2024-03-02T01:51:27;22.08;;;9.25;;
77076;SDS011;66003;52.286;104.306;2024-03-02T01:53:53;20.63;;;8.60;;
77076;SDS011;66003;52.286;104.306;2024-03-02T01:56:20;22.75;;;8.77;;
77076;SDS011;66003;52.286;104.306;2024-03-02T01:58:46;16.30;;;6.78;;
77076;SDS011;66003;52.286;104.306;2024-03-02T02:01:12;18.20;;;8.25;;
77076;SDS011;66003;52.286;104.306;2024-03-02T02:03:39;18.52;;;7.70;;
77076;SDS011;66003;52.286;104.306;2024-03-02T02:06:06;13.85;;;7.45;;
77076;SDS011;66003;52.286;104.306;2024-03-02T02:08:33;16.58;;;7.38;;
77076;SDS011;66003;52.286;104.306;2024-03-02T02:11:00;16.85;;;8.30;;
77076;SDS011;66003;52.286;104.306;2024-03-02T02:13:26;25.02;;;11.82;;
77076;SDS011;66003;52.286;104.306;2024-03-02T02:18:19;22.80;;;12.00;;
77076;SDS011;66003;52.286;104.306;2024-03-02T02:20:45;23.08;;;12.07;;
77076;SDS011;66003;52.286;104.306;2024-03-02T02:23:12;18.50;;;11.40;;
77076;SDS011;66003;52.286;104.306;2024-03-02T02:28:04;21.73;;;12.00;;
77076;SDS011;66003;52.286;104.306;2024-03-02T02:30:31;20.35;;;9.80;;
77076;SDS011;66003;52.286;104.306;2024-03-02T02:32:58;18.13;;;10.18;;
77076;SDS011;66003;52.286;104.306;2024-03-02T02:35:25;16.25;;;9.07;;
77076;SDS011;66003;52.286;104.306;2024-03-02T02:40:21;19.10;;;9.20;;
77076;SDS011;66003;52.286;104.306;2024-03-02T02:42:48;21.02;;;9.50;;
77076;SDS011;66003;52.286;104.306;2024-03-02T02:45:14;19.42;;;10.80;;
77076;SDS011;66003;52.286;104.306;2024-03-02T02:47:41;19.27;;;9.10;;
77076;SDS011;66003;52.286;104.306;2024-03-02T02:50:08;24.13;;;13.52;;
77076;SDS011;66003;52.286;104.306;2024-03-02T02:52:36;16.65;;;7.50;;
77076;SDS011;66003;52.286;104.306;2024-03-02T02:55:05;18.45;;;8.23;;
77076;SDS011;66003;52.286;104.306;2024-03-02T02:57:33;20.48;;;9.30;;
77076;SDS011;66003;52.286;104.306;2024-03-02T03:00:15;19.23;;;8.95;;
77076;SDS011;66003;52.286;104.306;2024-03-02T03:02:44;17.42;;;9.07;;
77076;SDS011;66003;52.286;104.306;2024-03-02T03:05:13;19.73;;;8.38;;
77076;SDS011;66003;52.286;104.306;2024-03-02T03:07:40;16.10;;;6.95;;
77076;SDS011;66003;52.286;104.306;2024-03-02T03:10:10;16.73;;;7.72;;
77076;SDS011;66003;52.286;104.306;2024-03-02T03:12:36;15.60;;;7.43;;
77076;SDS011;66003;52.286;104.306;2024-03-02T03:15:03;16.42;;;6.55;;
77076;SDS011;66003;52.286;104.306;2024-03-02T03:17:32;18.30;;;7.03;;
77076;SDS011;66003;52.286;104.306;2024-03-02T03:19:58;14.05;;;6.97;;
77076;SDS011;66003;52.286;104.306;2024-03-02T03:22:24;15.00;;;6.45;;
77076;SDS011;66003;52.286;104.306;2024-03-02T03:24:50;14.10;;;6.00;;
77076;SDS011;66003;52.286;104.306;2024-03-02T03:27:16;12.82;;;5.10;;
77076;SDS011;66003;52.286;104.306;2024-03-02T03:29:43;13.40;;;5.97;;
77076;SDS011;66003;52.286;104.306;2024-03-02T03:32:09;13.60;;;5.95;;
77076;SDS011;66003;52.286;104.306;2024-03-02T03:34:35;14.18;;;5.53;;
77076;SDS011;66003;52.286;104.306;2024-03-02T03:37:02;11.75;;;5.38;;
77076;SDS011;66003;52.286;104.306;2024-03-02T03:39:28;12.60;;;5.60;;
77076;SDS011;66003;52.286;104.306;2024-03-02T03:41:55;13.77;;;5.85;;
77076;SDS011;66003;52.286;104.306;2024-03-02T03:46:47;9.18;;;2.30;;
77076;SDS011;66003;52.286;104.306;2024-03-02T03:49:14;10.57;;;4.25;;
77076;SDS011;66003;52.286;104.306;2024-03-02T03:51:40;17.75;;;5.30;;
77076;SDS011;66003;52.286;104.306;2024-03-02T03:54:06;10.48;;;5.10;;
77076;SDS011;66003;52.286;104.306;2024-03-02T03:56:32;13.02;;;5.78;;
77076;SDS011;66003;52.286;104.306;2024-03-02T03:58:59;13.40;;;5.85;;
77076;SDS011;66003;52.286;104.306;2024-03-02T04:01:25;9.68;;;4.93;;
77076;SDS011;66003;52.286;104.306;2024-03-02T04:03:51;10.38;;;6.47;;
77076;SDS011;66003;52.286;104.306;2024-03-02T04:06:17;11.18;;;4.30;;
77076;SDS011;66003;52.286;104.306;2024-03-02T04:08:44;11.93;;;6.25;;
77076;SDS011;66003;52.286;104.306;2024-03-02T04:11:10;11.57;;;4.50;;
77076;SDS011;66003;52.286;104.306;2024-03-02T04:13:36;7.47;;;3.63;;
77076;SDS011;66003;52.286;104.306;2024-03-02T04:16:02;15.85;;;5.38;;
77076;SDS011;66003;52.286;104.306;2024-03-02T04:18:30;11.30;;;4.38;;
77076;SDS011;66003;52.286;104.306;2024-03-02T04:21:00;8.27;;;3.88;;
77076;SDS011;66003;52.286;104.306;2024-03-02T04:23:27;10.88;;;4.93;;
77076;SDS011;66003;52.286;104.306;2024-03-02T04:25:53;9.32;;;3.10;;
77076;SDS011;66003;52.286;104.306;2024-03-02T04:28:19;9.45;;;3.92;;
77076;SDS011;66003;52.286;104.306;2024-03-02T04:30:46;9.02;;;3.55;;
77076;SDS011;66003;52.286;104.306;2024-03-02T04:33:12;8.77;;;2.53;;
77076;SDS011;66003;52.286;104.306;2024-03-02T04:35:38;6.95;;;3.08;;
77076;SDS011;66003;52.286;104.306;2024-03-02T04:38:05;6.35;;;3.15;;
77076;SDS011;66003;52.286;104.306;2024-03-02T04:40:31;7.63;;;3.95;;
77076;SDS011;66003;52.286;104.306;2024-03-02T04:42:57;10.10;;;3.78;;
77076;SDS011;66003;52.286;104.306;2024-03-02T04:45:24;7.55;;;3.08;;
77076;SDS011;66003;52.286;104.306;2024-03-02T04:47:51;6.30;;;3.05;;
77076;SDS011;66003;52.286;104.306;2024-03-02T04:50:17;5.38;;;1.67;;
77076;SDS011;66003;52.286;104.306;2024-03-02T04:52:43;8.20;;;3.33;;
77076;SDS011;66003;52.286;104.306;2024-03-02T04:55:09;5.88;;;3.15;;
77076;SDS011;66003;52.286;104.306;2024-03-02T04:57:43;5.93;;;2.72;;
77076;SDS011;66003;52.286;104.306;2024-03-02T05:00:09;5.75;;;1.50;;
77076;SDS011;66003;52.286;104.306;2024-03-02T05:02:36;7.20;;;1.83;;
77076;SDS011;66003;52.286;104.306;2024-03-02T05:05:02;4.43;;;2.03;;
77076;SDS011;66003;52.286;104.306;2024-03-02T05:09:55;7.78;;;2.65;;
77076;SDS011;66003;52.286;104.306;2024-03-02T05:12:21;5.00;;;3.15;;
77076;SDS011;66003;52.286;104.306;2024-03-02T05:15:06;3.90;;;1.85;;
77076;SDS011;66003;52.286;104.306;2024-03-02T05:17:33;4.78;;;1.83;;
77076;SDS011;66003;52.286;104.306;2024-03-02T05:19:59;6.25;;;2.03;;
77076;SDS011;66003;52.286;104.306;2024-03-02T05:22:25;5.95;;;1.90;;
77076;SDS011;66003;52.286;104.306;2024-03-02T05:24:52;5.03;;;1.40;;
77076;SDS011;66003;52.286;104.306;2024-03-02T05:27:18;7.10;;;2.95;;
77076;SDS011;66003;52.286;104.306;2024-03-02T05:29:44;7.47;;;3.35;;
77076;SDS011;66003;52.286;104.306;2024-03-02T05:32:10;7.47;;;2.70;;
77076;SDS011;66003;52.286;104.306;2024-03-02T05:34:36;4.20;;;1.67;;
77076;SDS011;66003;52.286;104.306;2024-03-02T05:37:03;8.38;;;2.45;;
77076;SDS011;66003;52.286;104.306;2024-03-02T05:39:29;8.05;;;3.22;;
77076;SDS011;66003;52.286;104.306;2024-03-02T05:41:55;7.93;;;2.38;;
77076;SDS011;66003;52.286;104.306;2024-03-02T05:44:21;8.88;;;2.78;;
77076;SDS011;66003;52.286;104.306;2024-03-02T05:46:47;7.97;;;2.30;;
77076;SDS011;66003;52.286;104.306;2024-03-02T05:49:14;9.48;;;3.70;;
77076;SDS011;66003;52.286;104.306;2024-03-02T05:51:40;5.60;;;3.28;;
77076;SDS011;66003;52.286;104.306;2024-03-02T05:54:07;8.57;;;2.92;;
77076;SDS011;66003;52.286;104.306;2024-03-02T05:56:33;8.13;;;3.65;;
77076;SDS011;66003;52.286;104.306;2024-03-02T05:58:59;6.72;;;2.78;;
77076;SDS011;66003;52.286;104.306;2024-03-02T06:01:47;8.68;;;3.03;;
77076;SDS011;66003;52.286;104.306;2024-03-02T06:04:16;6.13;;;2.92;;
77076;SDS011;66003;52.286;104.306;2024-03-02T06:06:42;4.50;;;1.33;;
77076;SDS011;66003;52.286;104.306;2024-03-02T06:09:11;1.50;;;0.60;;
77076;SDS011;66003;52.286;104.306;2024-03-02T06:11:44;1.08;;;0.65;;
77076;SDS011;66003;52.286;104.306;2024-03-02T06:14:10;1.90;;;0.35;;
77076;SDS011;66003;52.286;104.306;2024-03-02T06:16:37;0.43;;;0.10;;
77076;SDS011;66003;52.286;104.306;2024-03-02T06:19:03;1.60;;;0.70;;
77076;SDS011;66003;52.286;104.306;2024-03-02T06:21:29;2.20;;;0.93;;
77076;SDS011;66003;52.286;104.306;2024-03-02T06:23:56;2.03;;;0.52;;
77076;SDS011;66003;52.286;104.306;2024-03-02T06:26:23;1.40;;;0.47;;
77076;SDS011;66003;52.286;104.306;2024-03-02T06:28:50;1.60;;;0.50;;
77076;SDS011;66003;52.286;104.306;2024-03-02T06:31:16;1.85;;;1.00;;
77076;SDS011;66003;52.286;104.306;2024-03-02T06:33:42;3.05;;;0.80;;
77076;SDS011;66003;52.286;104.306;2024-03-02T06:36:08;3.40;;;0.85;;
77076;SDS011;66003;52.286;104.306;2024-03-02T06:38:35;2.83;;;1.08;;
77076;SDS011;66003;52.286;104.306;2024-03-02T06:41:02;2.88;;;0.73;;
77076;SDS011;66003;52.286;104.306;2024-03-02T06:43:28;3.60;;;1.55;;
77076;SDS011;66003;52.286;104.306;2024-03-02T06:45:54;3.83;;;1.17;;
77076;SDS011;66003;52.286;104.306;2024-03-02T06:48:21;3.10;;;1.77;;
77076;SDS011;66003;52.286;104.306;2024-03-02T06:50:47;4.45;;;1.40;;
77076;SDS011;66003;52.286;104.306;2024-03-02T06:53:14;3.75;;;1.60;;
77076;SDS011;66003;52.286;104.306;2024-03-02T06:55:43;2.58;;;0.77;;
77076;SDS011;66003;52.286;104.306;2024-03-02T06:58:14;3.90;;;1.90;;
77076;SDS011;66003;52.286;104.306;2024-03-02T07:00:42;3.25;;;1.30;;
77076;SDS011;66003;52.286;104.306;2024-03-02T07:03:09;4.88;;;1.80;;
77076;SDS011;66003;52.286;104.306;2024-03-02T07:05:36;5.10;;;1.35;;
77076;SDS011;66003;52.286;104.306;2024-03-02T07:08:02;6.25;;;2.90;;
77076;SDS011;66003;52.286;104.306;2024-03-02T07:10:30;2.83;;;1.00;;
77076;SDS011;66003;52.286;104.306;2024-03-02T07:12:57;4.47;;;1.90;;
77076;SDS011;66003;52.286;104.306;2024-03-02T07:15:23;3.90;;;1.33;;
77076;SDS011;66003;52.286;104.306;2024-03-02T07:17:52;1.95;;;1.00;;
77076;SDS011;66003;52.286;104.306;2024-03-02T07:20:18;5.25;;;1.25;;
77076;SDS011;66003;52.286;104.306;2024-03-02T07:22:44;5.40;;;2.08;;
77076;SDS011;66003;52.286;104.306;2024-03-02T07:25:11;14.23;;;2.75;;
77076;SDS011;66003;52.286;104.306;2024-03-02T07:27:38;4.07;;;1.55;;
77076;SDS011;66003;52.286;104.306;2024-03-02T07:30:06;3.55;;;1.60;;
77076;SDS011;66003;52.286;104.306;2024-03-02T07:32:33;6.75;;;1.90;;
77076;SDS011;66003;52.286;104.306;2024-03-02T07:34:59;5.53;;;1.48;;
77076;SDS011;66003;52.286;104.306;2024-03-02T07:37:30;11.65;;;2.88;;
77076;SDS011;66003;52.286;104.306;2024-03-02T07:39:56;3.25;;;1.50;;
77076;SDS011;66003;52.286;104.306;2024-03-02T07:42:23;4.07;;;1.17;;
77076;SDS011;66003;52.286;104.306;2024-03-02T07:44:50;7.13;;;2.30;;
77076;SDS011;66003;52.286;104.306;2024-03-02T07:47:16;3.92;;;1.30;;
77076;SDS011;66003;52.286;104.306;2024-03-02T07:49:44;5.85;;;1.65;;
77076;SDS011;66003;52.286;104.306;2024-03-02T07:52:11;3.30;;;1.70;;
77076;SDS011;66003;52.286;104.306;2024-03-02T07:54:38;4.70;;;1.20;;
77076;SDS011;66003;52.286;104.306;2024-03-02T07:57:04;2.50;;;0.98;;
77076;SDS011;66003;52.286;104.306;2024-03-02T07:59:30;3.35;;;1.50;;
77076;SDS011;66003;52.286;104.306;2024-03-02T08:02:09;5.90;;;1.52;;
77076;SDS011;66003;52.286;104.306;2024-03-02T08:04:38;7.15;;;2.53;;
77076;SDS011;66003;52.286;104.306;2024-03-02T08:07:04;4.10;;;1.55;;
77076;SDS011;66003;52.286;104.306;2024-03-02T08:09:31;10.27;;;2.67;;
77076;SDS011;66003;52.286;104.306;2024-03-02T08:11:58;7.75;;;1.85;;
77076;SDS011;66003;52.286;104.306;2024-03-02T08:14:24;7.25;;;3.47;;
77076;SDS011;66003;52.286;104.306;2024-03-02T08:16:51;8.38;;;2.50;;
77076;SDS011;66003;52.286;104.306;2024-03-02T08:19:17;4.75;;;1.30;;
77076;SDS011;66003;52.286;104.306;2024-03-02T08:21:43;2.65;;;0.90;;
77076;SDS011;66003;52.286;104.306;2024-03-02T08:24:10;7.50;;;2.40;;
77076;SDS011;66003;52.286;104.306;2024-03-02T08:26:36;17.83;;;3.70;;
77076;SDS011;66003;52.286;104.306;2024-03-02T08:29:03;21.42;;;3.78;;
77076;SDS011;66003;52.286;104.306;2024-03-02T08:31:29;12.60;;;2.15;;
77076;SDS011;66003;52.286;104.306;2024-03-02T08:33:56;6.72;;;1.63;;
77076;SDS011;66003;52.286;104.306;2024-03-02T08:36:23;7.90;;;1.85;;
77076;SDS011;66003;52.286;104.306;2024-03-02T08:38:49;7.63;;;1.98;;
77076;SDS011;66003;52.286;104.306;2024-03-02T08:41:17;4.68;;;1.98;;
77076;SDS011;66003;52.286;104.306;2024-03-02T08:43:45;6.05;;;2.00;;
77076;SDS011;66003;52.286;104.306;2024-03-02T08:46:11;6.93;;;1.85;;
77076;SDS011;66003;52.286;104.306;2024-03-02T08:48:45;6.55;;;2.72;;
77076;SDS011;66003;52.286;104.306;2024-03-02T08:51:13;7.05;;;2.33;;
77076;SDS011;66003;52.286;104.306;2024-03-02T08:53:39;3.60;;;1.17;;
77076;SDS011;66003;52.286;104.306;2024-03-02T08:56:05;5.82;;;2.72;;
77076;SDS011;66003;52.286;104.306;2024-03-02T08:58:32;5.20;;;1.70;;
77076;SDS011;66003;52.286;104.306;2024-03-02T09:00:58;4.88;;;2.40;;
77076;SDS011;66003;52.286;104.306;2024-03-02T09:03:24;4.50;;;0.98;;
77076;SDS011;66003;52.286;104.306;2024-03-02T09:05:51;7.00;;;1.38;;
77076;SDS011;66003;52.286;104.306;2024-03-02T09:08:17;8.80;;;2.00;;
77076;SDS011;66003;52.286;104.306;2024-03-02T09:10:44;5.25;;;1.48;;
77076;SDS011;66003;52.286;104.306;2024-03-02T09:13:10;3.45;;;1.73;;
77076;SDS011;66003;52.286;104.306;2024-03-02T09:15:36;5.15;;;2.08;;
77076;SDS011;66003;52.286;104.306;2024-03-02T09:18:05;7.88;;;2.67;;
77076;SDS011;66003;52.286;104.306;2024-03-02T09:20:32;10.27;;;2.90;;
77076;SDS011;66003;52.286;104.306;2024-03-02T09:22:58;11.75;;;2.78;;
77076;SDS011;66003;52.286;104.306;2024-03-02T09:25:24;9.25;;;3.13;;
77076;SDS011;66003;52.286;104.306;2024-03-02T09:27:51;10.00;;;2.67;;
77076;SDS011;66003;52.286;104.306;2024-03-02T09:30:17;11.98;;;2.72;;
77076;SDS011;66003;52.286;104.306;2024-03-02T09:32:43;13.80;;;4.25;;
77076;SDS011;66003;52.286;104.306;2024-03-02T09:35:09;9.25;;;2.60;;
77076;SDS011;66003;52.286;104.306;2024-03-02T09:37:37;16.13;;;3.67;;
77076;SDS011;66003;52.286;104.306;2024-03-02T09:40:04;6.68;;;1.85;;
77076;SDS011;66003;52.286;104.306;2024-03-02T09:42:31;6.15;;;1.80;;
77076;SDS011;66003;52.286;104.306;2024-03-02T09:44:58;4.53;;;2.25;;
77076;SDS011;66003;52.286;104.306;2024-03-02T09:47:24;10.48;;;3.53;;
77076;SDS011;66003;52.286;104.306;2024-03-02T09:49:50;11.18;;;3.15;;
77076;SDS011;66003;52.286;104.306;2024-03-02T09:52:16;11.02;;;3.15;;
77076;SDS011;66003;52.286;104.306;2024-03-02T09:54:47;10.52;;;2.58;;
77076;SDS011;66003;52.286;104.306;2024-03-02T09:57:13;16.08;;;3.22;;
77076;SDS011;66003;52.286;104.306;2024-03-02T09:59:40;0.57;;;0.52;;
77076;SDS011;66003;52.286;104.306;2024-03-02T10:02:07;6.28;;;1.45;;
77076;SDS011;66003;52.286;104.306;2024-03-02T10:04:33;9.55;;;2.25;;
77076;SDS011;66003;52.286;104.306;2024-03-02T10:07:09;8.10;;;2.72;;
77076;SDS011;66003;52.286;104.306;2024-03-02T10:09:43;7.28;;;2.55;;
77076;SDS011;66003;52.286;104.306;2024-03-02T10:12:14;10.07;;;3.35;;
77076;SDS011;66003;52.286;104.306;2024-03-02T10:14:42;2.58;;;1.45;;
77076;SDS011;66003;52.286;104.306;2024-03-02T10:17:10;31.20;;;10.15;;
77076;SDS011;66003;52.286;104.306;2024-03-02T10:19:37;6.97;;;3.92;;
77076;SDS011;66003;52.286;104.306;2024-03-02T10:22:05;11.38;;;5.25;;
77076;SDS011;66003;52.286;104.306;2024-03-02T10:24:38;11.43;;;5.53;;
77076;SDS011;66003;52.286;104.306;2024-03-02T10:27:30;19.55;;;6.38;;
77076;SDS011;66003;52.286;104.306;2024-03-02T10:29:56;13.70;;;5.88;;
77076;SDS011;66003;52.286;104.306;2024-03-02T10:32:23;8.20;;;2.58;;
77076;SDS011;66003;52.286;104.306;2024-03-02T10:34:50;20.00;;;6.18;;
77076;SDS011;66003;52.286;104.306;2024-03-02T10:37:19;13.38;;;5.18;;
77076;SDS011;66003;52.286;104.306;2024-03-02T10:39:47;24.08;;;11.70;;
77076;SDS011;66003;52.286;104.306;2024-03-02T10:42:13;20.80;;;7.28;;
77076;SDS011;66003;52.286;104.306;2024-03-02T10:44:40;19.80;;;6.55;;
77076;SDS011;66003;52.286;104.306;2024-03-02T10:47:08;5.68;;;4.38;;
77076;SDS011;66003;52.286;104.306;2024-03-02T10:49:36;16.88;;;7.15;;
77076;SDS011;66003;52.286;104.306;2024-03-02T10:52:06;10.65;;;4.32;;
77076;SDS011;66003;52.286;104.306;2024-03-02T10:54:34;13.68;;;5.43;;
77076;SDS011;66003;52.286;104.306;2024-03-02T10:57:05;3.90;;;3.05;;
77076;SDS011;66003;52.286;104.306;2024-03-02T10:59:35;7.47;;;3.80;;
77076;SDS011;66003;52.286;104.306;2024-03-02T11:02:04;7.88;;;4.35;;
77076;SDS011;66003;52.286;104.306;2024-03-02T11:04:34;5.53;;;2.33;;
77076;SDS011;66003;52.286;104.306;2024-03-02T11:07:07;7.85;;;3.45;;
77076;SDS011;66003;52.286;104.306;2024-03-02T11:09:41;1.38;;;1.20;;
77076;SDS011;66003;52.286;104.306;2024-03-02T11:12:28;8.88;;;3.30;;
77076;SDS011;66003;52.286;104.306;2024-03-02T11:14:56;16.02;;;6.43;;
77076;SDS011;66003;52.286;104.306;2024-03-02T11:17:24;14.52;;;6.85;;
77076;SDS011;66003;52.286;104.306;2024-03-02T11:19:51;19.67;;;8.73;;
77076;SDS011;66003;52.286;104.306;2024-03-02T11:22:18;23.15;;;9.10;;
77076;SDS011;66003;52.286;104.306;2024-03-02T11:24:48;29.85;;;10.65;;
77076;SDS011;66003;52.286;104.306;2024-03-02T11:27:59;35.65;;;11.40;;
77076;SDS011;66003;52.286;104.306;2024-03-02T11:33:00;23.48;;;8.38;;
77076;SDS011;66003;52.286;104.306;2024-03-02T11:35:42;26.48;;;9.15;;
77076;SDS011;66003;52.286;104.306;2024-03-02T11:38:13;14.38;;;5.10;;
77076;SDS011;66003;52.286;104.306;2024-03-02T11:40:40;64.47;;;18.17;;
77076;SDS011;66003;52.286;104.306;2024-03-02T11:43:07;31.40;;;10.35;;
77076;SDS011;66003;52.286;104.306;2024-03-02T11:45:35;25.00;;;7.57;;
77076;SDS011;66003;52.286;104.306;2024-03-02T11:48:05;31.23;;;13.20;;
77076;SDS011;66003;52.286;104.306;2024-03-02T11:50:34;18.45;;;7.05;;
77076;SDS011;66003;52.286;104.306;2024-03-02T11:53:09;2.78;;;1.35;;
77076;SDS011;66003;52.286;104.306;2024-03-02T11:55:36;3.80;;;2.13;;
77076;SDS011;66003;52.286;104.306;2024-03-02T11:58:06;6.85;;;3.53;;
77076;SDS011;66003;52.286;104.306;2024-03-02T12:00:33;20.25;;;8.23;;
77076;SDS011;66003;52.286;104.306;2024-03-02T12:03:09;13.98;;;7.13;;
77076;SDS011;66003;52.286;104.306;2024-03-02T12:05:39;33.10;;;14.02;;
77076;SDS011;66003;52.286;104.306;2024-03-02T12:08:06;31.83;;;12.80;;
77076;SDS011;66003;52.286;104.306;2024-03-02T12:10:33;16.70;;;6.72;;
77076;SDS011;66003;52.286;104.306;2024-03-02T12:13:02;12.68;;;6.38;;
77076;SDS011;66003;52.286;104.306;2024-03-02T12:18:49;15.57;;;7.10;;
77076;SDS011;66003;52.286;104.306;2024-03-02T12:21:15;27.65;;;10.55;;
77076;SDS011;66003;52.286;104.306;2024-03-02T12:23:43;19.95;;;8.30;;
77076;SDS011;66003;52.286;104.306;2024-03-02T12:26:09;3.72;;;3.28;;
77076;SDS011;66003;52.286;104.306;2024-03-02T12:28:36;22.23;;;10.38;;
77076;SDS011;66003;52.286;104.306;2024-03-02T12:31:02;21.90;;;9.98;;
77076;SDS011;66003;52.286;104.306;2024-03-02T12:33:28;15.52;;;7.03;;
77076;SDS011;66003;52.286;104.306;2024-03-02T12:35:56;26.60;;;8.75;;
77076;SDS011;66003;52.286;104.306;2024-03-02T12:40:51;4.43;;;3.17;;
77076;SDS011;66003;52.286;104.306;2024-03-02T12:43:18;17.65;;;7.55;;
77076;SDS011;66003;52.286;104.306;2024-03-02T12:45:44;12.27;;;5.28;;
77076;SDS011;66003;52.286;104.306;2024-03-02T12:48:11;22.23;;;10.35;;
77076;SDS011;66003;52.286;104.306;2024-03-02T12:50:39;31.20;;;11.30;;
77076;SDS011;66003;52.286;104.306;2024-03-02T12:53:07;24.10;;;10.60;;
77076;SDS011;66003;52.286;104.306;2024-03-02T12:55:39;24.77;;;11.25;;
77076;SDS011;66003;52.286;104.306;2024-03-02T12:58:06;26.70;;;11.40;;
77076;SDS011;66003;52.286;104.306;2024-03-02T13:00:33;45.38;;;19.17;;
77076;SDS011;66003;52.286;104.306;2024-03-02T13:03:00;7.97;;;5.70;;
77076;SDS011;66003;52.286;104.306;2024-03-02T13:05:32;41.05;;;17.92;;
77076;SDS011;66003;52.286;104.306;2024-03-02T13:07:58;31.70;;;13.65;;
77076;SDS011;66003;52.286;104.306;2024-03-02T13:10:28;12.77;;;7.50;;
77076;SDS011;66003;52.286;104.306;2024-03-02T13:12:55;12.30;;;6.90;;
77076;SDS011;66003;52.286;104.306;2024-03-02T13:15:22;7.63;;;6.95;;
77076;SDS011;66003;52.286;104.306;2024-03-02T13:17:49;9.30;;;5.10;;
77076;SDS011;66003;52.286;104.306;2024-03-02T13:20:16;16.35;;;6.70;;
77076;SDS011;66003;52.286;104.306;2024-03-02T13:22:44;7.30;;;3.53;;
77076;SDS011;66003;52.286;104.306;2024-03-02T13:25:10;13.40;;;3.25;;
77076;SDS011;66003;52.286;104.306;2024-03-02T13:27:36;9.30;;;4.25;;
77076;SDS011;66003;52.286;104.306;2024-03-02T13:30:03;27.25;;;11.77;;
77076;SDS011;66003;52.286;104.306;2024-03-02T13:32:31;17.02;;;8.25;;
77076;SDS011;66003;52.286;104.306;2024-03-02T13:34:58;19.73;;;8.60;;
77076;SDS011;66003;52.286;104.306;2024-03-02T13:37:25;5.72;;;4.90;;
77076;SDS011;66003;52.286;104.306;2024-03-02T13:39:51;11.93;;;7.22;;
77076;SDS011;66003;52.286;104.306;2024-03-02T13:42:18;6.63;;;4.00;;
77076;SDS011;66003;52.286;104.306;2024-03-02T13:44:44;16.05;;;6.63;;
77076;SDS011;66003;52.286;104.306;2024-03-02T13:47:13;8.43;;;4.68;;
77076;SDS011;66003;52.286;104.306;2024-03-02T13:49:39;20.70;;;9.15;;
77076;SDS011;66003;52.286;104.306;2024-03-02T13:52:09;9.02;;;4.35;;
77076;SDS011;66003;52.286;104.306;2024-03-02T13:54:37;10.35;;;3.75;;
77076;SDS011;66003;52.286;104.306;2024-03-02T13:57:05;8.85;;;4.18;;
77076;SDS011;66003;52.286;104.306;2024-03-02T13:59:33;13.90;;;4.22;;
77076;SDS011;66003;52.286;104.306;2024-03-02T14:02:00;8.90;;;4.03;;
77076;SDS011;66003;52.286;104.306;2024-03-02T14:04:32;3.22;;;1.85;;
77076;SDS011;66003;52.286;104.306;2024-03-02T14:06:59;3.90;;;2.42;;
77076;SDS011;66003;52.286;104.306;2024-03-02T14:09:26;7.55;;;5.28;;
77076;SDS011;66003;52.286;104.306;2024-03-02T14:11:53;8.35;;;4.07;;
77076;SDS011;66003;52.286;104.306;2024-03-02T14:14:20;3.15;;;2.67;;
77076;SDS011;66003;52.286;104.306;2024-03-02T14:16:46;17.42;;;7.68;;
77076;SDS011;66003;52.286;104.306;2024-03-02T14:19:13;13.52;;;6.38;;
77076;SDS011;66003;52.286;104.306;2024-03-02T14:21:39;3.58;;;2.78;;
77076;SDS011;66003;52.286;104.306;2024-03-02T14:24:06;10.63;;;3.97;;
77076;SDS011;66003;52.286;104.306;2024-03-02T14:26:33;3.53;;;2.25;;
77076;SDS011;66003;52.286;104.306;2024-03-02T14:29:00;8.63;;;7.72;;
77076;SDS011;66003;52.286;104.306;2024-03-02T14:31:29;3.30;;;1.85;;
77076;SDS011;66003;52.286;104.306;2024-03-02T14:33:59;14.57;;;5.32;;
77076;SDS011;66003;52.286;104.306;2024-03-02T14:36:28;14.32;;;6.00;;